x

Ilm2 - 5 Miles Se Of Wrightsville Beach, Nc (41038) Weather Station

6:00pm - Sun 25th Jan 2015 All times are EST. -5 hours from GMT.

  • Wind
    7mph, 9mph gusts
  • Sea Temp 51°f
  • Air Temp 51°f
  • Sea Pressure 1012.3mb
  • Ilm2 - 5 Miles Se Of Wrightsville Beach, Nc
  • Ilm2 - 5 Miles Se Of Wrightsville Beach, Nc

More Historic Weather Station data

Upgrade to MSW Pro to gain access to the past 30 days of data for over 8000 Wavebouys and Weather Stations around the globe.

Join Pro

Comparision Forecast

View Surf forecast
   
Sun 01/25 6:00pm 7 9 mph 1012.3mb 51f 51f
5:00pm 11 13 mph 1012.7mb 52f 51f
4:00pm 9
mph
1013mb 52f 51f
3:00pm 9
mph
1012.8mb 52f 49f
2:00pm 9
mph
1013.6mb 52f 49f
1:00pm 4 7 mph 1014.1mb 51f 48f
12:00pm 2 4 mph 1015.3mb 51f 49f
11:00am 2
mph
1015.6mb 51f 48f
10:00am 2
mph
1015.9mb 51f 48f
9:00am 9 11 mph 1015.2mb 51f 44f
8:00am 7 9 mph 1014.9mb 51f 44f
7:00am 7 9 mph 1014.3mb 51f 43f
6:00am 11 13 mph 1013.8mb 51f 44f
5:00am 13 18 mph 1013mb 51f 44f
4:00am 11 13 mph 1012.1mb 51f 45f
3:00am 13 16 mph 1012.2mb 51f 46f
2:00am 13 16 mph 1011.7mb 51f 47f
1:00am 16 20 mph 1011mb 51f 48f
12:00am 16
mph
1010.7mb 51f 48f
Sat 01/24 11:00pm 16 18 mph 1010mb 51f 49f
10:00pm 18 22 mph 1009.6mb 51f 49f
9:00pm 18 22 mph 1009.1mb 51f 49f
8:00pm 16 20 mph 1008.8mb 51f 48f
7:00pm 13 18 mph 1008mb 51f 49f
6:00pm 16 18 mph 1007.1mb 51f 49f
5:00pm 18 22 mph 1005.7mb 51f 49f
4:00pm 20 27 mph 1004.5mb 51f 49f
3:00pm 20 27 mph 1003.3mb 51f 48f
2:00pm 22 29 mph 1002.8mb 51f 47f
1:00pm 29 34 mph 1001.5mb 51f 47f
12:00pm 20 27 mph 1001mb 51f 48f
11:00am 20 25 mph 1001.1mb 51f 48f
10:00am 13 18 mph 1000mb 51f 51f
9:00am 16 22 mph 998.5mb 51f 53f
8:00am 34 49 mph 998.2mb 51f 60f
7:00am 22 27 mph 998.2mb 51f 59f
6:00am 18 20 mph 998.9mb 51f 58f
5:00am 27 31 mph 999.9mb 51f 61f
4:00am 22 27 mph 1001.2mb 51f 60f
3:00am 18 20 mph 1002.3mb 51f 60f
2:00am 20 22 mph 1003mb 52f 60f
1:00am 22 27 mph 1004.5mb 52f 59f
12:00am 22 27 mph 1005.5mb 52f 60f
Fri 01/23 11:00pm 20 25 mph 1008.1mb 53f 59f
10:00pm 16 18 mph 1009.8mb 53f 61f
9:00pm 11 13 mph 1011.3mb 53f 60f
8:00pm 20 22 mph 1012mb 53f 62f
7:00pm 13 18 mph 1013.4mb 52f 60f
6:00pm 20 25 mph 1014.2mb 52f 61f
5:00pm 13 18 mph 1015.6mb 51f 59f
4:00pm 16 20 mph 1016.8mb 51f 51f
3:00pm 20 22 mph 1017.5mb 51f 50f
2:00pm 20 25 mph 1018.9mb 51f 51f
1:00pm 25 31 mph 1019.8mb 52f 51f
12:00pm 20 27 mph 1021.7mb 52f 51f
11:00am 22 27 mph 1023.3mb 53f 51f
10:00am 25 29 mph 1023.7mb 53f 52f
9:00am 20 27 mph 1024mb 53f 51f
8:00am 22 29 mph 1024.9mb 53f 51f
7:00am 25 29 mph 1024.7mb 52f 49f
6:00am 25 29 mph 1025.1mb 52f 49f
5:00am 20 25 mph 1025.5mb 52f 50f
4:00am 22 27 mph 1025.3mb 52f 49f
3:00am 22 27 mph 1025.4mb 52f 50f
2:00am 18 22 mph 1025.5mb 52f 50f
1:00am 16 20 mph 1026.1mb 52f 51f
12:00am 18 22 mph 1025.7mb 52f 53f
Thu 01/22 11:00pm 16 20 mph 1025.6mb 52f 56f
10:00pm 9 11 mph 1026.1mb 53f 54f
9:00pm 9 11 mph 1026.1mb 53f 54f
8:00pm 9 11 mph 1025.9mb 53f 54f
7:00pm 9 11 mph 1025.8mb 53f 57f
6:00pm 9 11 mph 1025.5mb 52f 56f
5:00pm 9
mph
1025.2mb 52f 56f
4:00pm 9 11 mph 1024.8mb 52f 56f
3:00pm 9 11 mph 1025mb 52f 55f
2:00pm 7 9 mph 1025.1mb 52f 53f
1:00pm 7
mph
1025.5mb 52f 51f
12:00pm 7 9 mph 1026.3mb 52f 49f
11:00am 9
mph
1026.8mb 52f 47f
10:00am 7 9 mph 1026.4mb 53f 47f
9:00am 7 9 mph 1025.8mb 53f 47f
8:00am 9 11 mph 1025.2mb 53f 47f
7:00am 11 13 mph 1024.1mb 53f 48f
6:00am 13 18 mph 1023.2mb 53f 48f
5:00am 13 18 mph 1022.4mb 52f 49f
4:00am 16 18 mph 1022.1mb 52f 49f
3:00am 13 18 mph 1021.9mb 52f 49f
2:00am 16 20 mph 1021.4mb 53f 49f
1:00am 13 18 mph 1021.1mb 52f 50f